Meteo Giornale » Osservazioni meteo Italia » S Maria Di Leuca

ore: 07:55 - Osservazioni Meteo S Maria Di Leuca
Lat. 39° 49' N Lon. 18° 21' E Alt. 104 metri s.l.m.

sereno Europe/Rome

24 °C

Sereno

Temp. 24 Ore

22 °C

27 °C

Nord

16.7 Km/h

Dew point 21 °C

Umidità 83 %

Visibilità  10 Km

Il sole sorge alle ore 05:40

Il sole tramonta alle ore 20:06

Data e Ora Cielo e Fenomeni T °C DP °C Um. % Pres. hPa Vis. km Vento km/h
Oggi h: 07:55 sereno Sereno 24 21 83 1007 10 N 16.7
Oggi h: 06:55 sereno Sereno 22 18 78 1006 10 N 13
Oggi h: 04:55 poco_nuvoloso Poco Nuvoloso 22 20 88 1006 10 N/NO 14.8
Oggi h: 03:55 poco_nuvoloso Poco Nuvoloso 22 20 88 1006 10 O/NO 13
Oggi h: 02:55 poco_nuvoloso Poco Nuvoloso 22 19 83 1006 10 N 11.1
Oggi h: 01:55 poco_nuvoloso Poco Nuvoloso 22 18 78 1006 10 N 13
Oggi h: 00:55 sereno Sereno 23 21 88 1006 10 N 11.1
Ieri h: 23:55 poco_nuvoloso Poco Nuvoloso 24 21 83 1006 10 NO 9.3
Ieri h: 22:55 molto_nuvoloso Molto Nuvoloso 24 21 83 1006 10 N/NO 11.1
Ieri h: 21:55 molto_nuvoloso Molto Nuvoloso 24 20 78 1006 10 O/NO 11.1
Ieri h: 20:55 molto_nuvoloso Molto Nuvoloso 25 21 78 1005 10 O 14.8
Ieri h: 19:55 nuvoloso Nuvoloso 25 19 69 1005 10 O 14.8
Ieri h: 18:55 nuvoloso Nuvoloso 26 19 65 1005 10 O 14.8
Ieri h: 17:55 nuvoloso Nuvoloso 26 19 65 1005 10 O/SO 13
Ieri h: 16:55 nuvoloso Nuvoloso 27 18 57 1005 10 O/SO 16.7
Ieri h: 15:55 nuvoloso Nuvoloso 27 19 61 1005 10 O/SO 20.3
Ieri h: 14:55 nuvoloso Nuvoloso 27 19 61 1005 10 O/SO 18.5
Ieri h: 13:55 nuvoloso Nuvoloso 27 19 61 1005 10 O/SO 20.3
Ieri h: 12:55 nuvoloso Nuvoloso 27 20 65 1005 10 O/SO 22.2
Ieri h: 11:55 nuvoloso Nuvoloso 26 19 65 1005 10 O/SO 22.2
Ieri h: 10:55 nuvoloso Nuvoloso 26 20 69 1005 10 O/SO 16.7
Ieri h: 09:55 nuvoloso Nuvoloso 25 19 69 1005 10 O/SO 9.3
Ieri h: 08:55 poco_nuvoloso Poco Nuvoloso 25 19 69 1005 10 O 7.4